Aeroporto :
LOGIN :

Iscrizione | Disclaimer

   EN    FR    IT 

 










Sommario :    VFR   VFR Marginale   IFR   IFR Intensivo   IFR Molto Intensivo
Visibilità : 
Base nubi : 
>= 8 km
>= 3000ft
5 / 8 km
1000 / 3000 ft
1500m / 5 km
500 / 1000 ft
800 / 1500m
200 / 500 ft
< 800m
< 200 ft
Simboli :   Temporali  Nebbia  Neve Forte  Precipitazioni Forti  Vento > 20 kt
SIGMETs :   Varie  Temporali  Ghiacco  Turbolenza  Onda orograficha  Ceneri Vulcaniche







- Altitudine del aeroporto : 3368 ft


LSGC - Les Eplatures

ULTIMO METAR :
  • 252320Z AUTO VRB02KT 9999 -SN BKN/// 01/M03 Q1024

METARs OBSOLETI :
  • 252250Z AUTO 00000KT 9999 -SN BKN/// 01/M04 Q1024
  • 252220Z AUTO VRB03KT 9999 -SN BKN/// 01/M04 Q1024
  • 252150Z AUTO 35004KT 260V070 9999 FEW027 SCT039 BKN044 01/M04 Q1023
  • 252120Z AUTO 00000KT 9999 FEW026 OVC050 01/M04 Q1023 RESN
  • 252050Z AUTO VRB03KT 9999 FEW046 OVC060 01/M05 Q1024

TAF TAF LSGC
Valido dal 25 a 15 ore il 26 a 00 ore UTC


251425Z 2515/2524 02008KT 9999 FEW020 BKN035
PROB30
TEMPO 2516/2524 3000 SHSN BKN010
Nessun NOTAM noto per questo aeroporto.
1 SIGMET conosciuto per la FIR Switzerland (LSAS) :
 
Turbolenza severa
LSAS SIGMET 2 VALID 252235/260100 LSZH
LSAS SWITZERLAND FIR/UIR SEV TURB FCST WI N4706 E00943 - N4702 E01025 - N4633 E01032 - N4614 E01011 - N4615 E00807 - N4638 E00753 - N4706 E00943 FL140/240 WKN=



MetMap, La meteo Aeronautica in un colpo d'occhio ! - Copyright ORBIFLY Dicembre 2007 - Disclaimer

ORBIFLY MET'MAP TEAM :

Programmazione e sviluppo : Alexandra Zaïnal
Concezione e sviluppo : Baudouin d'Aumeries
Co-Programmazione e sviluppo : Marc-Olivier Méhu
Supporto tecnico e logistico : Manuel Goepfert
Aiuto per la traduzione : Arnaldo La Scala

Contatto : metmap@orbifly.com




FONTI E CREDITI :

   NOAA